Terminal Aerodrome Forecast
Issued by NWS

Home | Current Version | Previous Version | Text Only | Print | Product List | Glossary On
Versions: 1 2 3 4 5 6 7 8 9 10 11 12 13 14 15 16 17 18 19 20 21
000
FTUS41 KCAR 220540
TAFFVE
TAF
KFVE 220540Z 2206/2306 27008KT P6SM SCT110 BKN250
     FM221100 16008KT P6SM SCT060 BKN250
     FM221600 18005KT P6SM VCSH BKN050
     FM222300 18005KT 5SM SHRA BR VCTS OVC040CB=

USA.gov is the U.S. government's official web portal to all federal, state and local government web resources and services.